Time;durP1;ratioP1;P1;durP2;ratioP2;P2;SDS_P1;SDS_P2;PMS_P1;PMS_P2;Temp;Humidity;BMP_temperature;BMP_pressure;BME280_temperature;BME280_humidity;BME280_pressure;Samples;Min_cycle;Max_cycle;Signal;HPM_P1;HPM_P2
2022/07/01 13:34:37;;;;;;;3.42;2.75;;;28.20;94.60;;;;;;5045150;28;20557;-70
2022/07/01 13:37:05;;;;;;;5.10;2.83;;;28.80;94.40;;;;;;5042398;28;20292;-71
2022/07/01 13:39:32;;;;;;;5.53;2.83;;;28.80;93.70;;;;;;5045434;28;20213;-69
2022/07/01 13:41:59;;;;;;;4.68;2.60;;;28.90;93.70;;;;;;5045364;28;20673;-69
2022/07/01 13:44:25;;;;;;;7.60;3.90;;;28.90;94.10;;;;;;5045270;28;20301;-70
2022/07/01 13:46:52;;;;;;;11.45;3.33;;;28.90;94.00;;;;;;5040797;28;20198;-69
2022/07/01 13:49:20;;;;;;;3.80;2.60;;;29.00;94.00;;;;;;5028068;28;20217;-68
2022/07/01 13:51:48;;;;;;;5.38;3.05;;;28.90;94.50;;;;;;5025460;28;20209;-70
2022/07/01 13:54:15;;;;;;;4.35;2.80;;;28.90;94.10;;;;;;5025242;28;20613;-69
2022/07/01 13:56:43;;;;;;;2.95;2.67;;;28.90;94.20;;;;;;5025366;28;20208;-68
2022/07/01 13:59:11;;;;;;;4.60;2.60;;;28.90;93.80;;;;;;5026892;28;20272;-69
2022/07/01 14:01:38;;;;;;;6.35;2.80;;;28.90;93.90;;;;;;5045138;28;20205;-70
2022/07/01 14:04:05;;;;;;;2.92;2.63;;;28.90;93.80;;;;;;5044606;28;20208;-70
2022/07/01 14:06:32;;;;;;;2.70;2.50;;;28.90;93.50;;;;;;5045075;28;20205;-71
2022/07/01 14:09:00;;;;;;;3.53;2.72;;;28.80;93.20;;;;;;5041089;28;20208;-70
2022/07/01 14:11:27;;;;;;;3.13;2.47;;;28.80;93.00;;;;;;5044186;28;20205;-70
2022/07/01 14:13:54;;;;;;;3.30;2.42;;;28.80;92.60;;;;;;5045040;28;20610;-69
2022/07/01 14:16:21;;;;;;;3.22;2.85;;;28.80;92.50;;;;;;5037047;28;20575;-69
2022/07/01 14:18:50;;;;;;;6.75;2.60;;;28.80;92.30;;;;;;5024575;28;20206;-67
2022/07/01 14:21:20;;;;;;;3.08;2.30;;;28.90;92.50;;;;;;5024893;28;20216;-69
2022/07/01 14:23:47;;;;;;;2.88;2.42;;;28.90;92.80;;;;;;5025025;28;20237;-70
2022/07/01 14:26:16;;;;;;;7.00;2.80;;;28.90;92.50;;;;;;5030080;28;20646;-69
2022/07/01 14:28:43;;;;;;;4.80;2.70;;;28.90;92.30;;;;;;5043820;28;20261;-69
2022/07/01 14:31:10;;;;;;;4.20;2.50;;;28.90;92.30;;;;;;5044358;28;20300;-70
2022/07/01 14:33:37;;;;;;;4.60;2.10;;;28.90;92.20;;;;;;5041532;28;20650;-68
2022/07/01 14:36:05;;;;;;;5.03;2.63;;;28.90;92.50;;;;;;5031255;28;20285;-69
2022/07/01 14:38:31;;;;;;;5.07;2.30;;;28.90;92.70;;;;;;5029948;28;20659;-69
2022/07/01 14:40:58;;;;;;;4.82;3.05;;;28.90;91.90;;;;;;5031149;28;20331;-69
2022/07/01 14:43:27;;;;;;;2.70;2.50;;;28.90;91.80;;;;;;5029320;28;20237;-70
2022/07/01 14:45:54;;;;;;;2.88;2.53;;;28.80;91.70;;;;;;5030682;28;20296;-69
2022/07/01 14:48:20;;;;;;;3.70;2.35;;;28.90;92.00;;;;;;5030939;28;20213;-68
2022/07/01 14:50:47;;;;;;;5.18;2.53;;;28.90;90.80;;;;;;5030755;28;20242;-70
2022/07/01 14:53:14;;;;;;;3.70;2.50;;;28.80;91.30;;;;;;5029371;28;20265;-69
2022/07/01 14:55:41;;;;;;;12.48;3.05;;;28.80;90.90;;;;;;5030517;28;20208;-70
2022/07/01 14:58:08;;;;;;;10.07;2.70;;;28.80;90.50;;;;;;5026002;28;20304;-70
2022/07/01 15:00:37;;;;;;;5.50;3.60;;;28.80;90.40;;;;;;5030533;28;20293;-69
2022/07/01 15:03:04;;;;;;;3.30;2.60;;;28.70;90.00;;;;;;5028557;28;20233;-69
2022/07/01 15:05:31;;;;;;;3.72;2.72;;;28.80;89.50;;;;;;5030479;28;20212;-69
2022/07/01 15:07:58;;;;;;;3.60;2.13;;;28.80;89.60;;;;;;5030636;28;20209;-70
2022/07/01 15:10:25;;;;;;;3.83;2.10;;;28.80;89.60;;;;;;5030832;28;20209;-69
2022/07/01 15:12:52;;;;;;;6.25;2.50;;;28.80;89.90;;;;;;5028476;28;20257;-71
2022/07/01 15:15:19;;;;;;;5.60;2.38;;;28.80;89.60;;;;;;5030494;28;20249;-71
2022/07/01 15:17:48;;;;;;;4.22;2.17;;;28.80;87.70;;;;;;5030667;28;20642;-69
2022/07/01 15:20:16;;;;;;;5.85;2.33;;;28.90;88.40;;;;;;5030725;28;20300;-69
2022/07/01 15:22:43;;;;;;;4.68;2.22;;;28.90;88.40;;;;;;5028314;28;20228;-71
2022/07/01 15:25:11;;;;;;;2.78;2.13;;;28.90;88.50;;;;;;5030449;28;20607;-69
2022/07/01 15:27:38;;;;;;;3.15;2.13;;;28.90;88.70;;;;;;5030537;28;20667;-70
2022/07/01 15:30:06;;;;;;;3.85;2.10;;;28.80;87.00;;;;;;5030132;28;20262;-71
2022/07/01 15:32:33;;;;;;;2.85;1.95;;;28.80;87.00;;;;;;5030376;28;20746;-72
2022/07/01 15:35:03;;;;;;;2.20;1.80;;;28.80;86.50;;;;;;5028860;28;20209;-71
2022/07/01 15:37:30;;;;;;;12.38;2.78;;;28.80;86.90;;;;;;5028205;28;20213;-71
2022/07/01 15:39:57;;;;;;;2.75;2.00;;;28.80;87.80;;;;;;5030240;28;20738;-72
2022/07/01 15:42:24;;;;;;;33.72;3.00;;;28.80;88.60;;;;;;5030326;28;20295;-70
2022/07/01 15:44:50;;;;;;;4.32;2.10;;;28.80;88.20;;;;;;5029829;28;20262;-70
2022/07/01 15:50:03;;;;;;;4.13;2.13;;;28.80;88.70;;;;;;5029844;28;20270;-71
2022/07/01 15:52:30;;;;;;;3.20;2.10;;;28.60;89.10;;;;;;5029818;28;20309;-71
2022/07/01 15:54:57;;;;;;;4.32;2.40;;;28.60;87.30;;;;;;5029745;28;20734;-69
2022/07/01 15:57:24;;;;;;;4.18;2.10;;;28.60;87.20;;;;;;5028858;28;20244;-72
2022/07/01 15:59:54;;;;;;;2.50;2.03;;;28.50;86.20;;;;;;5029816;28;20209;-71
2022/07/01 16:02:21;;;;;;;2.88;1.88;;;28.50;85.50;;;;;;5029575;28;20258;-68
2022/07/01 16:04:51;;;;;;;3.20;2.38;;;28.50;85.30;;;;;;5027849;28;20304;-69
2022/07/01 16:07:22;;;;;;;3.20;2.03;;;28.50;84.50;;;;;;5029882;28;20228;-71
2022/07/01 16:09:58;;;;;;;4.22;2.05;;;28.50;86.20;;;;;;5029584;28;20220;-71
2022/07/01 16:12:26;;;;;;;3.15;2.38;;;28.40;86.70;;;;;;5027918;28;20205;-69
2022/07/01 16:14:54;;;;;;;3.28;2.40;;;28.40;86.90;;;;;;5029258;28;20294;-70
2022/07/01 16:17:24;;;;;;;4.07;2.28;;;28.40;88.70;;;;;;5029529;28;20212;-70
2022/07/01 16:19:53;;;;;;;5.15;2.63;;;28.30;90.00;;;;;;5029563;28;20213;-70
2022/07/01 16:22:25;;;;;;;2.60;2.40;;;28.30;89.90;;;;;;5028568;28;20595;-70
2022/07/01 16:24:53;;;;;;;4.93;2.95;;;28.20;89.10;;;;;;5029075;28;20223;-70
2022/07/01 16:27:22;;;;;;;4.18;2.50;;;28.20;90.00;;;;;;5029283;28;20272;-71
2022/07/01 16:29:49;;;;;;;3.00;2.60;;;28.20;90.50;;;;;;5028940;28;20214;-68
2022/07/01 16:32:17;;;;;;;2.95;2.13;;;28.10;90.30;;;;;;5028923;28;20211;-68
2022/07/01 16:34:44;;;;;;;3.35;2.55;;;28.10;90.30;;;;;;5027202;28;20211;-68
2022/07/01 16:37:13;;;;;;;4.13;2.38;;;28.10;90.70;;;;;;5027313;28;20271;-69
2022/07/01 16:39:46;;;;;;;4.30;2.35;;;28.00;90.70;;;;;;5029325;28;20673;-67
2022/07/01 16:42:15;;;;;;;4.82;2.42;;;27.90;90.60;;;;;;5029349;28;20268;-69
2022/07/01 16:44:46;;;;;;;4.57;2.20;;;27.90;91.10;;;;;;5028887;28;20224;-71
2022/07/01 16:47:21;;;;;;;4.82;2.70;;;27.80;90.90;;;;;;5028190;28;20561;-67
2022/07/01 16:49:50;;;;;;;3.30;2.50;;;27.70;90.90;;;;;;5028760;28;20193;-67
2022/07/01 16:52:18;;;;;;;3.15;2.60;;;27.70;91.20;;;;;;5029121;28;20337;-68
2022/07/01 16:54:52;;;;;;;5.93;2.65;;;27.60;91.30;;;;;;5028818;28;20199;-68
2022/07/01 16:57:22;;;;;;;5.40;2.47;;;27.60;91.40;;;;;;5028676;28;20197;-69
2022/07/01 16:59:49;;;;;;;2.38;2.15;;;27.60;91.60;;;;;;5027898;28;20295;-68
2022/07/01 17:02:17;;;;;;;4.28;2.53;;;27.60;91.80;;;;;;5028947;28;20565;-69
2022/07/01 17:04:45;;;;;;;4.75;2.47;;;27.50;92.00;;;;;;5028991;28;20322;-66
2022/07/01 17:07:13;;;;;;;6.40;2.83;;;27.50;92.00;;;;;;5027555;28;20217;-68
2022/07/01 17:09:44;;;;;;;7.68;3.08;;;27.50;92.10;;;;;;5008680;28;20281;-70
2022/07/01 17:12:14;;;;;;;3.33;2.70;;;27.50;92.30;;;;;;5009212;28;20237;-70
2022/07/01 17:14:45;;;;;;;5.35;2.92;;;27.40;92.50;;;;;;5008664;28;20625;-69
2022/07/01 17:17:14;;;;;;;4.50;2.90;;;27.40;92.90;;;;;;5009103;28;20244;-69
2022/07/01 17:19:41;;;;;;;3.58;2.67;;;27.30;93.10;;;;;;5013327;28;20206;-70
2022/07/01 17:22:14;;;;;;;4.28;2.83;;;27.20;92.90;;;;;;5009299;28;20298;-71
2022/07/01 17:24:48;;;;;;;3.90;2.78;;;27.10;93.30;;;;;;5008762;28;20261;-70
2022/07/01 17:27:31;;;;;;;4.97;3.05;;;27.10;93.50;;;;;;5009734;28;20219;-68
2022/07/01 17:30:03;;;;;;;4.35;2.72;;;27.00;93.30;;;;;;5017395;28;20205;-67
2022/07/01 17:32:34;;;;;;;3.72;2.90;;;27.00;93.80;;;;;;5029138;28;20327;-73
2022/07/01 17:35:03;;;;;;;4.35;3.00;;;26.90;93.50;;;;;;5030684;28;20279;-68
2022/07/01 17:37:31;;;;;;;3.50;2.97;;;26.90;93.80;;;;;;5028964;28;20212;-70
2022/07/01 17:40:02;;;;;;;6.63;2.95;;;26.80;93.90;;;;;;5029049;28;20717;-68
2022/07/01 17:42:31;;;;;;;6.22;3.10;;;26.70;94.00;;;;;;5012018;28;20201;-66
2022/07/01 17:44:59;;;;;;;5.30;2.50;;;26.60;93.80;;;;;;5008942;28;20340;-66
2022/07/01 17:47:27;;;;;;;4.85;2.78;;;26.50;94.00;;;;;;5009042;28;20304;-69
2022/07/01 17:49:54;;;;;;;7.97;2.50;;;26.50;93.90;;;;;;5008993;28;20265;-66
2022/07/01 17:52:22;;;;;;;3.88;2.60;;;26.40;93.90;;;;;;5008992;28;20212;-68
2022/07/01 17:54:51;;;;;;;3.42;2.60;;;26.30;94.10;;;;;;5008431;28;20568;-68
2022/07/01 17:57:18;;;;;;;5.90;2.80;;;26.30;94.40;;;;;;5008998;28;20244;-68
2022/07/01 17:59:47;;;;;;;6.85;2.60;;;26.20;94.00;;;;;;5007962;28;20213;-68
2022/07/01 18:02:15;;;;;;;4.65;2.85;;;26.10;94.10;;;;;;5008817;28;20740;-67
2022/07/01 18:04:42;;;;;;;5.80;2.75;;;26.00;94.20;;;;;;5011172;28;20243;-66
2022/07/01 18:07:09;;;;;;;5.73;2.57;;;26.00;93.90;;;;;;5064907;27;20212;-69
2022/07/01 18:09:38;;;;;;;6.23;2.60;;;25.90;93.90;;;;;;5077952;27;20212;-66
2022/07/01 18:12:12;;;;;;;3.67;2.30;;;25.90;94.20;;;;;;5014097;28;20207;-68
2022/07/01 18:14:52;;;;;;;4.30;2.50;;;25.90;93.90;;;;;;5030077;28;20438;-67
2022/07/01 18:17:19;;;;;;;6.10;2.80;;;25.80;94.00;;;;;;5032022;28;20276;-66
2022/07/01 18:19:59;;;;;;;9.30;2.83;;;25.80;94.00;;;;;;5046834;27;20300;-68
2022/07/01 18:22:29;;;;;;;6.32;4.20;;;25.70;93.90;;;;;;5026425;27;20207;-68
2022/07/01 18:24:57;;;;;;;4.27;2.70;;;25.70;94.50;;;;;;5011861;28;20323;-66
2022/07/01 18:27:31;;;;;;;4.63;2.47;;;25.60;94.20;;;;;;5011234;28;20236;-66
2022/07/01 18:30:04;;;;;;;6.40;2.83;;;25.60;94.20;;;;;;5025963;28;20301;-68
2022/07/01 18:32:35;;;;;;;4.57;3.78;;;25.60;94.30;;;;;;5031272;28;20246;-71
2022/07/01 18:35:04;;;;;;;3.40;2.70;;;25.50;94.50;;;;;;5031433;28;20189;-66
2022/07/01 18:37:41;;;;;;;16.60;3.03;;;25.50;94.60;;;;;;5030892;28;20212;-67
2022/07/01 18:40:08;;;;;;;6.00;2.87;;;25.40;94.70;;;;;;5028630;28;20283;-66
2022/07/01 18:42:35;;;;;;;5.27;3.30;;;25.40;94.90;;;;;;5025476;28;20680;-66
2022/07/01 18:45:04;;;;;;;4.23;2.90;;;25.30;95.10;;;;;;5021055;28;20223;-68
2022/07/01 18:47:32;;;;;;;3.27;2.50;;;25.30;95.20;;;;;;5019330;28;20196;-71
2022/07/01 18:49:59;;;;;;;3.55;2.85;;;25.10;95.40;;;;;;5048251;27;20474;-68
2022/07/01 18:52:26;;;;;;;5.87;3.43;;;25.10;95.50;;;;;;5077500;27;20234;-68
2022/07/01 18:54:53;;;;;;;5.30;3.20;;;25.00;95.60;;;;;;5076116;27;20201;-66
2022/07/01 18:57:20;;;;;;;6.77;2.93;;;25.00;95.80;;;;;;5027364;28;20205;-68
2022/07/01 18:59:46;;;;;;;4.60;2.93;;;25.00;95.80;;;;;;5018121;28;20377;-67
2022/07/01 19:02:15;;;;;;;5.83;2.87;;;24.90;96.30;;;;;;5016876;28;20213;-66
2022/07/01 19:04:43;;;;;;;4.57;2.87;;;24.90;96.00;;;;;;5011498;28;20247;-68
2022/07/01 19:07:11;;;;;;;6.87;3.20;;;24.90;96.10;;;;;;5046588;27;20205;-69
2022/07/01 19:09:38;;;;;;;11.60;8.03;;;24.80;96.30;;;;;;5020368;28;20659;-68
2022/07/01 19:12:06;;;;;;;19.30;13.90;;;24.80;96.40;;;;;;5024852;28;20210;-70
2022/07/01 19:14:33;;;;;;;9.07;5.43;;;24.70;96.40;;;;;;5020623;28;20618;-68
2022/07/01 19:17:00;;;;;;;4.17;3.27;;;24.70;96.40;;;;;;5014409;28;20298;-67
2022/07/01 19:19:29;;;;;;;6.80;4.70;;;24.70;96.60;;;;;;5013293;28;20227;-67
2022/07/01 19:21:56;;;;;;;6.43;3.70;;;24.70;96.60;;;;;;5022193;28;20217;-68
2022/07/01 19:24:23;;;;;;;4.43;3.30;;;24.60;96.70;;;;;;5019634;28;20331;-68
2022/07/01 19:26:51;;;;;;;4.80;2.97;;;24.60;96.80;;;;;;5015295;28;20288;-68
2022/07/01 19:29:18;;;;;;;5.00;3.10;;;24.60;96.90;;;;;;5019645;28;20241;-69
2022/07/01 19:31:45;;;;;;;3.03;2.57;;;24.60;96.90;;;;;;5029614;28;20577;-70
2022/07/01 19:34:12;;;;;;;6.33;3.23;;;24.50;97.10;;;;;;5029890;28;20275;-66
2022/07/01 19:36:40;;;;;;;10.17;5.87;;;24.50;97.40;;;;;;5011299;28;20684;-70
2022/07/01 19:39:08;;;;;;;6.67;5.10;;;24.40;97.60;;;;;;5010736;28;20236;-68
2022/07/01 19:41:35;;;;;;;4.40;3.57;;;24.30;97.70;;;;;;5023915;28;20206;-68
2022/07/01 19:44:02;;;;;;;10.07;6.00;;;24.20;97.90;;;;;;5084823;27;20220;-67
2022/07/01 19:46:30;;;;;;;5.40;4.20;;;24.10;97.90;;;;;;5027716;28;20278;-68
2022/07/01 19:48:58;;;;;;;4.40;3.57;;;24.10;98.00;;;;;;5028700;28;20258;-67
2022/07/01 19:51:25;;;;;;;3.53;3.10;;;24.00;98.20;;;;;;5029777;28;20212;-68
2022/07/01 19:53:54;;;;;;;5.23;3.23;;;24.00;98.20;;;;;;5028181;28;20216;-69
2022/07/01 19:56:22;;;;;;;6.57;3.63;;;24.00;98.40;;;;;;5029257;28;20211;-68
2022/07/01 19:58:48;;;;;;;5.17;3.20;;;24.00;98.50;;;;;;5020911;28;20724;-67
2022/07/01 20:01:15;;;;;;;5.93;3.47;;;23.90;98.70;;;;;;5025408;28;20335;-67
2022/07/01 20:03:42;;;;;;;4.23;3.23;;;23.90;98.70;;;;;;5025614;28;20216;-68
2022/07/01 20:06:09;;;;;;;5.40;3.27;;;23.90;98.80;;;;;;5028154;28;20229;-66
2022/07/01 20:08:36;;;;;;;6.87;3.37;;;23.90;98.90;;;;;;5016337;28;20256;-66
2022/07/01 20:11:04;;;;;;;5.80;4.07;;;23.90;99.00;;;;;;5015641;28;20213;-67
2022/07/01 20:13:32;;;;;;;7.80;4.27;;;23.90;99.00;;;;;;5009371;28;20811;-66
2022/07/01 20:15:59;;;;;;;8.63;4.60;;;23.90;99.10;;;;;;5028224;28;20205;-68
2022/07/01 20:18:26;;;;;;;7.30;4.67;;;23.80;99.10;;;;;;5028897;28;20318;-67
2022/07/01 20:20:55;;;;;;;6.00;3.93;;;23.80;99.20;;;;;;5027431;28;20248;-67
2022/07/01 20:23:24;;;;;;;6.43;4.20;;;23.80;99.40;;;;;;5015628;28;20294;-67
2022/07/01 20:25:50;;;;;;;8.30;4.40;;;23.80;99.60;;;;;;5009653;28;20231;-68
2022/07/01 20:28:20;;;;;;;8.93;5.73;;;23.80;99.90;;;;;;5028582;28;20208;-65
2022/07/01 20:30:47;;;;;;;10.90;7.40;;;23.70;99.80;;;;;;5028050;28;20227;-67
2022/07/01 20:33:14;;;;;;;9.33;5.30;;;23.70;99.90;;;;;;5028392;28;20327;-66
2022/07/01 20:35:42;;;;;;;6.43;4.73;;;23.60;99.90;;;;;;5029247;28;20209;-65
2022/07/01 20:38:09;;;;;;;8.07;4.40;;;23.50;99.90;;;;;;5028972;28;20256;-65
2022/07/01 20:40:35;;;;;;;5.37;4.00;;;23.50;99.90;;;;;;5010419;28;20293;-66
2022/07/01 20:43:02;;;;;;;7.73;4.60;;;23.40;99.90;;;;;;5018352;28;20209;-66
2022/07/01 20:45:31;;;;;;;6.40;4.30;;;23.30;99.90;;;;;;5026063;28;20567;-65
2022/07/01 20:47:58;;;;;;;5.50;3.93;;;23.30;99.90;;;;;;5029083;28;20207;-67
2022/07/01 20:50:25;;;;;;;6.17;4.30;;;23.20;99.90;;;;;;5029031;28;20573;-66
2022/07/01 20:52:52;;;;;;;5.80;3.70;;;23.20;99.90;;;;;;5028860;28;20214;-66
2022/07/01 20:55:18;;;;;;;5.33;3.97;;;23.10;99.90;;;;;;5026468;28;20288;-66
2022/07/01 20:57:45;;;;;;;7.63;3.93;;;23.10;99.90;;;;;;5009843;28;20252;-67
2022/07/01 21:00:14;;;;;;;6.27;3.53;;;23.10;99.90;;;;;;5008923;28;20720;-67
2022/07/01 21:02:42;;;;;;;6.17;3.57;;;23.10;99.90;;;;;;5010921;28;20287;-66
2022/07/01 21:05:09;;;;;;;5.47;3.50;;;23.10;99.90;;;;;;5023699;28;20687;-65
2022/07/01 21:07:36;;;;;;;7.33;3.50;;;23.00;99.90;;;;;;5009319;28;20213;-67
2022/07/01 21:10:03;;;;;;;5.13;3.13;;;23.00;99.90;;;;;;5013880;28;20200;-66
2022/07/01 21:12:30;;;;;;;3.63;3.23;;;22.90;99.90;;;;;;5027286;28;20268;-67
2022/07/01 21:14:57;;;;;;;4.67;3.20;;;22.90;99.90;;;;;;5019675;28;20211;-66
2022/07/01 21:17:24;;;;;;;5.30;4.07;;;22.90;99.90;;;;;;5012011;28;20567;-66
2022/07/01 21:19:53;;;;;;;7.27;5.50;;;22.90;99.90;;;;;;5021830;28;20270;-66
2022/07/01 21:22:19;;;;;;;6.60;4.73;;;22.90;99.90;;;;;;5016805;28;20278;-66
2022/07/01 21:24:46;;;;;;;11.57;3.47;;;22.90;99.90;;;;;;5006821;28;20642;-66
2022/07/01 21:27:16;;;;;;;4.37;3.33;;;22.90;99.90;;;;;;5009663;28;20291;-66
2022/07/01 21:29:43;;;;;;;4.50;3.00;;;22.90;99.90;;;;;;5014312;28;20231;-72
2022/07/01 21:32:10;;;;;;;4.73;2.90;;;22.80;99.90;;;;;;5018141;27;20603;-71
2022/07/01 21:34:37;;;;;;;4.87;3.20;;;22.80;99.90;;;;;;5013881;28;20269;-72
2022/07/01 21:37:06;;;;;;;5.63;3.40;;;22.80;99.90;;;;;;5017912;28;20608;-71
2022/07/01 21:39:34;;;;;;;5.10;3.37;;;22.80;99.90;;;;;;5016020;28;20207;-72
2022/07/01 21:42:02;;;;;;;4.07;3.40;;;22.80;99.90;;;;;;5017780;28;20272;-70
2022/07/01 21:44:31;;;;;;;3.83;3.07;;;22.80;99.90;;;;;;5006734;28;20202;-71
2022/07/01 21:46:59;;;;;;;3.80;2.83;;;22.80;99.90;;;;;;5015856;28;20200;-71
2022/07/01 21:49:27;;;;;;;3.50;2.97;;;22.80;99.90;;;;;;5021241;28;20220;-71
2022/07/01 21:51:55;;;;;;;6.47;3.40;;;22.80;99.90;;;;;;5020638;28;20248;-71
2022/07/01 21:54:29;;;;;;;3.90;3.10;;;22.80;99.90;;;;;;5018929;28;20267;-72
2022/07/01 21:56:57;;;;;;;3.97;3.33;;;22.80;99.90;;;;;;5009294;28;20698;-72
2022/07/01 21:59:26;;;;;;;3.90;3.00;;;22.80;99.90;;;;;;5009381;28;20634;-72
2022/07/01 22:01:54;;;;;;;3.43;2.83;;;22.80;99.90;;;;;;5023088;28;20288;-72
2022/07/01 22:04:21;;;;;;;4.93;3.20;;;22.80;99.90;;;;;;5018651;28;20210;-71
2022/07/01 22:06:51;;;;;;;4.30;3.30;;;22.80;99.90;;;;;;5015362;28;20325;-70
2022/07/01 22:09:19;;;;;;;4.50;3.27;;;22.80;99.90;;;;;;5021790;28;20258;-71
2022/07/01 22:11:49;;;;;;;4.33;3.23;;;22.80;99.90;;;;;;5030260;28;20207;-71
2022/07/01 22:14:19;;;;;;;4.93;3.40;;;22.70;99.90;;;;;;5030186;28;20281;-72
2022/07/01 22:16:49;;;;;;;6.50;3.40;;;22.70;99.90;;;;;;5030425;28;20578;-71
2022/07/01 22:19:17;;;;;;;5.53;4.10;;;22.70;99.90;;;;;;5028807;28;20833;-71
2022/07/01 22:21:47;;;;;;;7.40;4.00;;;22.70;99.90;;;;;;5029354;28;20218;-70
2022/07/01 22:24:17;;;;;;;5.43;4.00;;;22.70;99.90;;;;;;5029898;28;20190;-73
2022/07/01 22:26:46;;;;;;;4.83;4.00;;;22.60;99.90;;;;;;5030046;28;20353;-70
2022/07/01 22:29:14;;;;;;;5.53;3.63;;;22.60;99.90;;;;;;5027566;28;20214;-71
2022/07/01 22:31:44;;;;;;;10.17;3.80;;;22.60;99.90;;;;;;5028861;28;20218;-71
2022/07/01 22:34:11;;;;;;;6.17;3.90;;;22.60;99.90;;;;;;5029275;28;20328;-71
2022/07/01 22:36:39;;;;;;;5.87;3.33;;;22.60;99.90;;;;;;5029803;28;20569;-71
2022/07/01 22:39:07;;;;;;;4.17;3.20;;;22.60;99.90;;;;;;5027319;28;20206;-70
2022/07/01 22:41:34;;;;;;;5.60;3.50;;;22.60;99.90;;;;;;5030577;28;20210;-69
2022/07/01 22:44:02;;;;;;;5.80;3.60;;;22.60;99.90;;;;;;5030870;28;20202;-70
2022/07/01 22:46:44;;;;;;;5.00;3.60;;;22.50;99.90;;;;;;5031239;28;20604;-71
2022/07/01 22:49:18;;;;;;;5.43;3.73;;;22.50;99.90;;;;;;5030911;28;20226;-71
2022/07/01 22:51:54;;;;;;;4.83;3.40;;;22.50;99.90;;;;;;5028409;28;20194;-71
2022/07/01 22:54:31;;;;;;;8.63;4.87;;;22.50;99.90;;;;;;5019714;28;20227;-70
2022/07/01 22:56:59;;;;;;;5.13;3.70;;;22.40;99.90;;;;;;5011846;28;20704;-69
2022/07/01 22:59:30;;;;;;;5.37;3.87;;;22.40;99.90;;;;;;5015089;28;20205;-71
2022/07/01 23:02:01;;;;;;;4.73;3.30;;;22.40;99.90;;;;;;5020102;28;20226;-70
2022/07/01 23:04:35;;;;;;;4.50;3.17;;;22.30;99.90;;;;;;5011062;28;20195;-70
2022/07/01 23:07:09;;;;;;;4.90;3.63;;;22.20;99.90;;;;;;5011017;28;20246;-70
2022/07/01 23:09:46;;;;;;;3.50;3.13;;;22.10;99.90;;;;;;5010673;28;20199;-70
2022/07/01 23:12:20;;;;;;;4.80;3.83;;;22.00;99.90;;;;;;5010535;28;20209;-69
2022/07/01 23:17:40;;;;;;;5.03;3.70;;;22.00;99.90;;;;;;5010994;28;20182;-69
2022/07/01 23:20:11;;;;;;;5.40;3.40;;;22.00;99.90;;;;;;5010657;28;20187;-70
2022/07/01 23:22:40;;;;;;;6.37;3.47;;;21.90;99.90;;;;;;5010850;28;20199;-69
2022/07/01 23:25:09;;;;;;;4.83;3.50;;;21.90;99.90;;;;;;5010806;28;20736;-70
2022/07/01 23:27:37;;;;;;;5.63;3.60;;;21.90;99.90;;;;;;5010710;28;20764;-70
2022/07/01 23:30:05;;;;;;;5.40;3.70;;;21.80;99.90;;;;;;5013344;28;20229;-70
2022/07/01 23:32:32;;;;;;;5.30;3.70;;;21.80;99.90;;;;;;5026613;28;20325;-69
2022/07/01 23:35:01;;;;;;;5.33;3.70;;;21.80;99.90;;;;;;5028050;28;20206;-70
2022/07/01 23:37:28;;;;;;;8.23;3.70;;;21.80;99.90;;;;;;5020068;28;20259;-70
2022/07/01 23:39:58;;;;;;;6.77;3.03;;;21.70;99.90;;;;;;5030083;28;20302;-71
2022/07/01 23:42:25;;;;;;;4.90;3.23;;;21.60;99.90;;;;;;5030463;28;20606;-70
2022/07/01 23:44:52;;;;;;;6.07;3.70;;;21.50;99.90;;;;;;5030346;28;20206;-69
2022/07/01 23:47:19;;;;;;;5.17;3.80;;;21.50;99.90;;;;;;5028901;28;20221;-69
2022/07/01 23:49:46;;;;;;;9.53;3.97;;;21.40;99.90;;;;;;5029086;28;20202;-70
2022/07/01 23:52:14;;;;;;;4.77;3.40;;;21.40;99.90;;;;;;5030311;28;20635;-70
2022/07/01 23:54:41;;;;;;;6.40;3.67;;;21.30;99.90;;;;;;5022793;28;20241;-70
2022/07/01 23:57:08;;;;;;;4.23;3.37;;;21.30;99.90;;;;;;5029448;28;20735;-69
2022/07/01 23:59:35;;;;;;;7.83;4.10;;;21.30;99.90;;;;;;5030258;28;20680;-70
